Time;durP1;ratioP1;P1;durP2;ratioP2;P2;SDS_P1;SDS_P2;PMS_P1;PMS_P2;Temp;Humidity;BMP_temperature;BMP_pressure;BME280_temperature;BME280_humidity;BME280_pressure;Samples;Min_cycle;Max_cycle;Signal;HPM_P1;HPM_P2
2024/03/22 00:02:21;;;;;;;23.10;17.92;;;;;;;14.63;72.72;101377.81;143717;574;47002;-71
2024/03/22 00:04:48;;;;;;;23.02;18.05;;;;;;;14.61;72.65;101382.59;143715;582;47008;-71
2024/03/22 00:07:14;;;;;;;25.02;18.85;;;;;;;14.59;72.67;101381.97;143715;616;47004;-71
2024/03/22 00:09:41;;;;;;;26.62;19.12;;;;;;;14.59;73.36;101373.00;143717;585;47006;-71
2024/03/22 00:12:07;;;;;;;24.73;16.30;;;;;;;14.60;73.21;101370.13;143713;611;47003;-71
2024/03/22 00:14:33;;;;;;;21.25;17.05;;;;;;;14.60;72.61;101377.38;143717;590;47011;-72
2024/03/22 00:17:00;;;;;;;23.73;17.40;;;;;;;14.58;73.02;101374.91;143715;579;47014;-73
2024/03/22 00:19:26;;;;;;;25.65;16.95;;;;;;;14.56;73.67;101356.16;143716;594;47006;-71
2024/03/22 00:21:53;;;;;;;20.80;16.77;;;;;;;14.58;73.70;101371.34;143716;584;47002;-71
2024/03/22 00:24:19;;;;;;;17.12;13.85;;;;;;;14.55;72.38;101365.34;143715;573;47008;-71
2024/03/22 00:26:46;;;;;;;22.17;14.90;;;;;;;14.64;72.63;101362.41;143714;614;47004;-71
2024/03/22 00:29:12;;;;;;;23.23;14.73;;;;;;;14.59;73.22;101359.50;143716;585;46006;-71
2024/03/22 00:31:39;;;;;;;18.12;12.05;;;;;;;14.59;72.48;101373.00;143713;611;47004;-71
2024/03/22 00:34:05;;;;;;;12.98;9.77;;;;;;;14.61;71.88;101379.03;143717;602;46010;-71
2024/03/22 00:36:31;;;;;;;16.77;11.73;;;;;;;14.57;73.34;101370.53;143715;605;47005;-73
2024/03/22 00:38:58;;;;;;;17.23;10.85;;;;;;;14.47;73.35;101383.66;143715;572;47006;-72
2024/03/22 00:41:24;;;;;;;15.73;11.12;;;;;;;14.44;73.74;101382.16;143716;566;47004;-72
2024/03/22 00:43:51;;;;;;;16.70;11.98;;;;;;;14.30;74.29;101367.81;143715;603;47006;-72
2024/03/22 00:46:17;;;;;;;19.05;11.65;;;;;;;14.22;74.12;101365.34;143713;594;47004;-72
2024/03/22 00:48:43;;;;;;;13.15;10.35;;;;;;;14.11;74.68;101364.06;143716;601;47006;-72
2024/03/22 00:51:10;;;;;;;17.75;10.88;;;;;;;14.20;74.66;101360.16;143714;590;47002;-72
2024/03/22 00:53:36;;;;;;;14.85;11.88;;;;;;;14.19;74.54;101363.03;143717;584;46023;-72
2024/03/22 00:56:03;;;;;;;16.58;12.20;;;;;;;14.20;74.37;101354.75;143712;617;47004;-72
2024/03/22 00:58:29;;;;;;;17.35;12.20;;;;;;;14.25;74.94;101351.41;143716;600;46007;-72
2024/03/22 01:00:56;;;;;;;19.27;13.10;;;;;;;14.23;74.97;101343.50;143714;647;47002;-72
2024/03/22 01:03:23;;;;;;;16.67;12.25;;;;;;;14.25;74.81;101341.44;143715;588;47925;-72
2024/03/22 01:05:49;;;;;;;15.98;12.63;;;;;;;14.28;75.17;101344.75;143714;586;47004;-72
2024/03/22 01:08:16;;;;;;;16.92;12.82;;;;;;;14.28;75.08;101344.75;143715;589;47000;-72
2024/03/22 01:10:42;;;;;;;14.90;12.70;;;;;;;14.27;75.10;101352.03;143715;609;47002;-72
2024/03/22 01:13:08;;;;;;;17.75;12.40;;;;;;;14.25;75.70;101343.31;143716;581;47008;-72
2024/03/22 01:15:35;;;;;;;18.33;12.57;;;;;;;14.24;75.42;101347.06;143713;581;47004;-72
2024/03/22 01:18:02;;;;;;;16.83;11.98;;;;;;;14.21;75.52;101340.16;143716;625;47006;-71
2024/03/22 01:20:28;;;;;;;14.50;11.60;;;;;;;14.18;75.67;101337.91;143716;619;47003;-72
2024/03/22 01:22:54;;;;;;;15.60;11.18;;;;;;;14.16;75.55;101344.53;143716;568;47010;-72
2024/03/22 01:25:21;;;;;;;15.40;11.63;;;;;;;14.12;76.21;101338.72;143715;580;47002;-72
2024/03/22 01:27:47;;;;;;;16.20;10.82;;;;;;;14.09;76.50;101347.25;143718;579;46006;-72
2024/03/22 01:30:13;;;;;;;16.52;10.65;;;;;;;14.10;76.12;101346.19;143714;590;47004;-72
2024/03/22 01:32:40;;;;;;;11.73;9.00;;;;;;;14.09;75.45;101339.97;143716;604;46017;-72
2024/03/22 01:35:07;;;;;;;10.85;8.23;;;;;;;14.10;74.96;101330.84;143717;634;47005;-72
2024/03/22 01:37:33;;;;;;;12.60;7.97;;;;;;;14.10;74.95;101332.69;143717;591;47006;-72
2024/03/22 01:39:59;;;;;;;9.65;7.07;;;;;;;14.10;74.84;101330.00;143720;593;46006;-71
2024/03/22 01:42:26;;;;;;;10.95;7.75;;;;;;;14.12;75.39;101325.22;143716;584;47010;-72
2024/03/22 01:44:52;;;;;;;12.25;8.80;;;;;;;14.03;75.67;101323.78;143716;616;47004;-72
2024/03/22 01:47:18;;;;;;;12.18;7.70;;;;;;;13.99;75.30;101317.94;143715;572;47006;-71
2024/03/22 01:49:45;;;;;;;9.18;6.62;;;;;;;13.96;75.14;101326.44;143717;570;47004;-71
2024/03/22 01:52:11;;;;;;;10.20;5.97;;;;;;;13.99;74.52;101312.53;143722;610;47008;-71
2024/03/22 01:54:38;;;;;;;9.68;5.30;;;;;;;14.05;74.28;101310.88;143714;593;47004;-72
2024/03/22 01:57:05;;;;;;;9.70;5.80;;;;;;;14.03;74.23;101318.37;143720;649;47007;-73
2024/03/22 01:59:33;;;;;;;7.40;5.85;;;;;;;14.12;73.98;101316.28;143722;636;47002;-73
2024/03/22 04:00:53;;;;;;;12.15;7.80;;;;;;;13.48;80.59;101324.72;143737;567;47010;-72
2024/03/22 04:03:19;;;;;;;15.85;8.90;;;;;;;13.61;80.95;101337.38;143724;582;46006;-72
2024/03/22 04:05:45;;;;;;;10.50;7.05;;;;;;;13.66;80.51;101332.22;143725;633;47004;-71
2024/03/22 04:08:12;;;;;;;7.70;6.15;;;;;;;13.66;80.40;101343.00;143721;569;47004;-71
2024/03/22 04:10:38;;;;;;;8.05;5.40;;;;;;;13.70;79.47;101343.44;143725;602;47004;-71
2024/03/22 04:13:04;;;;;;;8.90;6.00;;;;;;;13.74;80.18;101352.78;143724;622;47006;-72
2024/03/22 04:15:34;;;;;;;12.68;5.53;;;;;;;13.78;78.88;101346.78;143728;587;47002;-72
2024/03/22 04:18:01;;;;;;;10.05;5.15;;;;;;;13.80;79.94;101352.81;143723;655;47919;-71
2024/03/22 04:20:27;;;;;;;9.90;5.43;;;;;;;13.87;79.33;101346.59;143723;610;47004;-72
2024/03/22 04:22:53;;;;;;;9.07;4.78;;;;;;;13.87;78.89;101350.09;143726;592;47002;-72
2024/03/22 04:25:19;;;;;;;12.32;8.60;;;;;;;13.86;79.03;101361.94;143734;573;46020;-72
2024/03/22 04:27:46;;;;;;;15.20;8.85;;;;;;;13.90;78.99;101349.72;143721;598;47004;-72
2024/03/22 04:30:12;;;;;;;15.20;9.35;;;;;;;13.89;79.13;101348.03;143724;671;47002;-72
2024/03/22 04:32:39;;;;;;;11.05;7.25;;;;;;;13.90;79.39;101347.00;143724;611;46006;-72
2024/03/22 04:35:05;;;;;;;11.90;7.85;;;;;;;13.91;80.19;101350.56;143727;603;47005;-72
2024/03/22 04:37:32;;;;;;;13.20;6.97;;;;;;;13.94;79.67;101348.25;143724;597;47010;-72
2024/03/22 04:39:58;;;;;;;11.07;6.90;;;;;;;13.96;79.56;101350.75;143721;620;47004;-72
2024/03/22 04:42:25;;;;;;;7.53;6.10;;;;;;;14.00;79.97;101359.28;143726;624;47005;-72
2024/03/22 04:44:51;;;;;;;10.27;6.60;;;;;;;14.10;80.03;101362.41;143729;600;47002;-73
2024/03/22 04:47:17;;;;;;;11.45;7.40;;;;;;;14.15;80.59;101364.47;143721;580;47006;-72
2024/03/22 04:49:44;;;;;;;12.80;6.47;;;;;;;14.12;80.60;101359.53;143722;601;47004;-73
2024/03/22 04:52:10;;;;;;;12.85;7.22;;;;;;;14.10;81.24;101368.66;143725;592;46006;-72
2024/03/22 04:54:37;;;;;;;9.68;7.10;;;;;;;14.08;82.05;101364.47;143724;589;47006;-72
2024/03/22 04:57:03;;;;;;;11.12;7.62;;;;;;;14.24;81.58;101365.97;143730;656;47004;-72
2024/03/22 04:59:30;;;;;;;14.25;8.23;;;;;;;14.23;81.77;101380.50;143728;580;47006;-71
2024/03/22 05:01:56;;;;;;;15.07;8.10;;;;;;;14.21;81.94;101382.59;143722;582;46008;-72
2024/03/22 05:04:22;;;;;;;12.80;7.45;;;;;;;14.25;82.05;101373.03;143720;613;47006;-72
2024/03/22 05:06:49;;;;;;;13.23;8.75;;;;;;;14.31;82.11;101383.00;143717;595;47010;-72
2024/03/22 05:09:15;;;;;;;17.00;9.68;;;;;;;14.36;81.89;101383.22;143717;657;47006;-72
2024/03/22 05:11:41;;;;;;;15.18;9.10;;;;;;;14.36;82.48;101388.63;143717;576;47008;-71
2024/03/22 05:14:08;;;;;;;14.15;8.82;;;;;;;14.38;82.55;101391.94;143723;569;46008;-72
2024/03/22 05:16:34;;;;;;;15.65;8.55;;;;;;;14.40;82.58;101394.44;143719;577;47010;-72
2024/03/22 05:19:01;;;;;;;11.77;8.10;;;;;;;14.46;82.41;101399.00;143721;579;47004;-72
2024/03/22 05:21:28;;;;;;;14.25;7.50;;;;;;;14.45;81.95;101396.53;143721;572;46008;-72
2024/03/22 05:23:54;;;;;;;22.77;8.55;;;;;;;14.47;81.39;101397.97;143717;581;47006;-72
2024/03/22 05:26:20;;;;;;;15.25;7.80;;;;;;;14.62;82.57;101397.78;143719;583;46027;-72
2024/03/22 05:28:47;;;;;;;12.13;7.60;;;;;;;14.63;81.85;101399.44;143719;624;47004;-72
2024/03/22 05:31:13;;;;;;;15.32;7.60;;;;;;;14.71;81.87;101411.94;143723;574;47008;-71
2024/03/22 05:33:40;;;;;;;18.08;8.45;;;;;;;14.80;82.58;101421.50;143718;578;47005;-72
2024/03/22 05:36:07;;;;;;;16.73;8.20;;;;;;;14.85;82.17;101423.56;143718;601;46925;-70
2024/03/22 05:38:33;;;;;;;18.15;9.15;;;;;;;14.90;83.30;101431.06;143719;591;47006;-70
2024/03/22 05:41:04;;;;;;;14.55;8.23;;;;;;;14.78;84.34;101428.97;143722;614;47008;-70
2024/03/22 05:43:30;;;;;;;15.70;10.10;;;;;;;14.75;84.11;101437.50;143718;590;47004;-70
2024/03/22 05:45:57;;;;;;;16.90;8.73;;;;;;;14.83;83.83;101444.56;143717;572;47012;-70
2024/03/22 05:48:23;;;;;;;15.60;9.38;;;;;;;15.01;84.04;101460.16;143720;585;47006;-70
2024/03/22 05:50:50;;;;;;;14.40;7.47;;;;;;;15.08;84.01;101461.00;143718;567;47008;-71
2024/03/22 05:53:16;;;;;;;10.63;8.30;;;;;;;15.05;84.52;101457.88;143721;585;47004;-69
2024/03/22 05:55:43;;;;;;;10.30;7.40;;;;;;;14.97;84.58;101453.50;143720;621;47010;-71
2024/03/22 05:58:09;;;;;;;10.25;6.60;;;;;;;14.92;84.41;101454.16;143718;597;47006;-72
2024/03/22 06:00:36;;;;;;;11.40;7.70;;;;;;;15.06;83.91;101452.25;143718;630;47008;-73
2024/03/22 06:03:02;;;;;;;9.93;6.95;;;;;;;15.29;83.22;101467.19;143719;599;47004;-72
2024/03/22 06:05:28;;;;;;;14.82;7.50;;;;;;;15.48;83.83;101464.63;143723;568;46021;-72
2024/03/22 06:07:55;;;;;;;10.50;6.72;;;;;;;15.60;84.00;101463.78;143719;576;47006;-72
2024/03/22 06:10:22;;;;;;;11.10;7.10;;;;;;;15.69;85.61;101472.50;143719;628;46009;-72
2024/03/22 06:12:48;;;;;;;12.50;7.85;;;;;;;15.73;85.17;101470.19;143724;612;47006;-72
2024/03/22 06:15:14;;;;;;;15.88;7.75;;;;;;;15.66;85.81;101475.62;143718;567;47012;-72
2024/03/22 06:17:42;;;;;;;17.52;7.65;;;;;;;15.81;86.51;101482.66;143718;615;47929;-71
2024/03/22 06:20:09;;;;;;;9.13;6.95;;;;;;;15.89;86.29;101475.13;143723;616;47008;-71
2024/03/22 06:22:36;;;;;;;16.52;8.02;;;;;;;15.99;85.64;101482.81;143723;572;47004;-72
2024/03/22 06:25:03;;;;;;;12.98;7.40;;;;;;;16.06;86.04;101474.66;143717;601;47010;-72
2024/03/22 06:27:29;;;;;;;13.70;7.78;;;;;;;16.16;86.19;101480.44;143715;578;47006;-71
2024/03/22 06:29:56;;;;;;;19.05;7.62;;;;;;;16.27;86.13;101480.78;143721;665;47008;-72
2024/03/22 06:32:22;;;;;;;14.30;7.32;;;;;;;16.33;86.31;101482.62;143718;618;47004;-71
2024/03/22 06:34:49;;;;;;;15.93;6.87;;;;;;;16.44;86.66;101491.94;143716;588;47013;-71
2024/03/22 06:37:15;;;;;;;14.05;7.47;;;;;;;16.49;88.54;101500.25;143716;607;47006;-72
2024/03/22 06:39:41;;;;;;;18.65;7.35;;;;;;;16.60;89.92;101504.13;143718;576;47009;-72
2024/03/22 06:42:07;;;;;;;13.32;7.62;;;;;;;16.69;89.37;101502.81;143718;617;47008;-72
2024/03/22 06:44:33;;;;;;;13.70;7.65;;;;;;;16.78;89.06;101508.81;143719;567;47010;-72
2024/03/22 06:47:00;;;;;;;11.27;7.55;;;;;;;16.84;89.07;101497.06;143722;573;47007;-72
2024/03/22 06:49:26;;;;;;;14.27;7.90;;;;;;;16.88;90.88;101498.28;143724;607;46008;-72
2024/03/22 06:51:52;;;;;;;13.68;8.07;;;;;;;17.09;89.94;101498.97;143714;623;47004;-72
2024/03/22 06:54:19;;;;;;;17.77;7.62;;;;;;;17.20;89.24;101502.84;143722;603;47012;-72
2024/03/22 06:56:45;;;;;;;18.00;9.00;;;;;;;17.30;89.64;101507.75;143722;600;47006;-72
2024/03/22 06:59:12;;;;;;;15.55;9.77;;;;;;;17.47;90.47;101510.72;143719;656;47008;-72
2024/03/22 07:01:38;;;;;;;13.73;10.32;;;;;;;17.62;91.00;101510.34;143718;580;47006;-72
2024/03/22 07:04:04;;;;;;;15.52;7.85;;;;;;;17.72;90.32;101514.19;143717;592;47010;-72
2024/03/22 07:06:31;;;;;;;14.60;8.95;;;;;;;17.85;90.42;101513.19;143715;619;48010;-72
2024/03/22 07:08:57;;;;;;;11.52;7.07;;;;;;;18.03;89.54;101512.38;143719;575;47008;-72
2024/03/22 07:11:24;;;;;;;12.63;7.70;;;;;;;18.13;88.68;101517.25;143724;567;47007;-71
2024/03/22 07:13:50;;;;;;;11.60;7.97;;;;;;;18.15;87.85;101526.03;143716;566;47012;-72
2024/03/22 07:16:16;;;;;;;10.63;6.93;;;;;;;18.03;85.16;101525.97;143717;629;47006;-72
2024/03/22 07:18:42;;;;;;;9.15;5.80;;;;;;;18.01;84.42;101525.34;143716;590;47009;-71
2024/03/22 07:21:09;;;;;;;12.45;6.57;;;;;;;18.19;85.50;101526.38;143723;573;47004;-72
2024/03/22 07:23:35;;;;;;;14.00;7.43;;;;;;;18.27;86.42;101536.94;143718;585;46925;-72
2024/03/22 07:26:01;;;;;;;13.20;7.82;;;;;;;18.30;86.65;101536.50;143715;611;47006;-73
2024/03/22 07:28:28;;;;;;;11.45;9.15;;;;;;;18.23;85.10;101543.09;143719;617;46923;-69
2024/03/22 07:30:55;;;;;;;14.18;8.07;;;;;;;18.29;84.89;101555.75;143723;572;47004;-71
2024/03/22 07:33:21;;;;;;;14.32;9.77;;;;;;;18.46;85.55;101550.50;143719;610;46012;-72
2024/03/22 07:35:48;;;;;;;10.98;8.05;;;;;;;18.57;85.30;101554.31;143715;579;47006;-71
2024/03/22 07:38:14;;;;;;;13.48;8.38;;;;;;;18.57;85.23;101546.97;143723;596;46923;-71
2024/03/22 07:40:40;;;;;;;15.57;9.82;;;;;;;18.42;85.15;101561.03;143714;591;48010;-71
2024/03/22 07:43:07;;;;;;;17.17;9.88;;;;;;;18.37;85.58;101566.31;143719;609;47010;-72
2024/03/22 07:45:35;;;;;;;18.20;8.57;;;;;;;18.28;84.57;101568.53;143719;650;47006;-71
2024/03/22 07:48:02;;;;;;;10.68;6.45;;;;;;;18.25;82.93;101568.97;143717;574;47009;-72
2024/03/22 07:50:28;;;;;;;9.60;5.75;;;;;;;18.25;83.12;101570.88;143718;574;47008;-71
2024/03/22 07:52:54;;;;;;;7.85;5.90;;;;;;;18.24;82.31;101566.50;143718;613;47012;-72
2024/03/22 07:55:22;;;;;;;11.02;5.62;;;;;;;18.21;82.22;101575.09;143720;576;47006;-72
2024/03/22 07:57:48;;;;;;;12.05;5.97;;;;;;;18.27;82.48;101577.75;143721;588;46008;-71
2024/03/22 08:00:15;;;;;;;13.68;6.57;;;;;;;18.53;82.23;101575.72;143718;621;47004;-71
2024/03/22 08:02:42;;;;;;;8.82;6.00;;;;;;;18.70;82.01;101570.44;143717;631;47010;-71
2024/03/22 08:05:08;;;;;;;7.30;5.43;;;;;;;18.75;81.21;101577.91;143719;604;47006;-71
2024/03/22 08:07:34;;;;;;;7.55;5.20;;;;;;;18.72;81.34;101579.22;143724;625;46008;-71
2024/03/22 08:10:02;;;;;;;7.12;5.90;;;;;;;18.89;81.25;101575.81;143726;602;47004;-71
2024/03/22 08:12:28;;;;;;;9.93;6.30;;;;;;;18.80;80.99;101575.31;143722;590;47013;-71
2024/03/22 08:14:55;;;;;;;8.60;6.55;;;;;;;18.70;80.47;101581.31;143722;590;47006;-71
2024/03/22 08:17:21;;;;;;;11.82;7.35;;;;;;;18.73;81.65;101582.75;143719;584;46009;-71
2024/03/22 08:19:48;;;;;;;9.57;6.37;;;;;;;18.35;81.87;101589.37;143719;622;47004;-71
2024/03/22 08:22:14;;;;;;;11.55;6.07;;;;;;;18.41;82.22;101599.31;143724;630;46010;-71
2024/03/22 08:24:40;;;;;;;13.38;6.47;;;;;;;18.23;83.62;101595.56;143721;574;46011;-72
2024/03/22 08:27:06;;;;;;;8.00;6.53;;;;;;;17.92;85.33;101593.81;143716;590;47024;-71
2024/03/22 08:29:33;;;;;;;9.10;6.82;;;;;;;17.90;86.49;101594.03;143727;580;46014;-71
2024/03/22 08:31:59;;;;;;;9.25;5.85;;;;;;;18.24;86.22;101590.97;143723;569;47012;-71
2024/03/22 08:34:26;;;;;;;10.82;7.20;;;;;;;18.47;87.57;101593.78;143721;575;47006;-71
2024/03/22 08:36:52;;;;;;;11.68;8.05;;;;;;;18.24;91.86;101590.97;143718;595;47008;-70
2024/03/22 08:39:18;;;;;;;11.57;7.28;;;;;;;18.04;94.68;101600.19;143721;581;47006;-70
2024/03/22 08:41:45;;;;;;;12.13;8.55;;;;;;;18.12;95.50;101602.59;143717;583;47010;-71
2024/03/22 08:44:11;;;;;;;11.07;8.63;;;;;;;17.85;100.00;101602.03;143721;585;47006;-71
2024/03/22 08:46:38;;;;;;;12.40;7.90;;;;;;;17.93;100.00;101609.06;143724;588;46008;-70
2024/03/22 08:49:04;;;;;;;13.32;8.07;;;;;;;17.99;100.00;101603.59;143717;595;47004;-71
2024/03/22 08:51:31;;;;;;;13.82;8.25;;;;;;;18.00;100.00;101609.84;143722;622;46010;-71
2024/03/22 08:54:00;;;;;;;15.90;9.23;;;;;;;18.28;100.00;101595.72;143717;593;47007;-70
2024/03/22 08:56:27;;;;;;;16.12;9.43;;;;;;;18.63;98.66;101597.75;143720;600;46008;-70
2024/03/22 08:58:53;;;;;;;12.37;8.45;;;;;;;18.91;96.98;101604.44;143715;573;47004;-70
2024/03/22 09:01:20;;;;;;;11.77;8.82;;;;;;;18.79;95.05;101599.00;143718;634;47012;-70
2024/03/22 09:03:46;;;;;;;16.33;8.35;;;;;;;19.02;92.42;101594.69;143719;579;47006;-70
2024/03/22 09:06:13;;;;;;;12.18;7.87;;;;;;;19.32;89.25;101601.97;143720;581;47008;-69
2024/03/22 09:08:39;;;;;;;9.98;6.97;;;;;;;19.54;86.07;101596.75;143718;629;47006;-70
2024/03/22 09:11:06;;;;;;;13.38;7.15;;;;;;;19.50;87.41;101592.84;143716;626;47925;-70
2024/03/22 09:13:34;;;;;;;9.65;7.03;;;;;;;19.58;86.76;101594.38;143716;600;47006;-71
2024/03/22 09:16:01;;;;;;;12.98;6.65;;;;;;;19.66;86.51;101587.72;143721;582;46023;-70
2024/03/22 09:18:27;;;;;;;10.25;6.78;;;;;;;20.12;84.94;101598.84;143717;583;47007;-71
2024/03/22 09:20:54;;;;;;;13.20;6.75;;;;;;;20.40;82.19;101589.00;143717;584;47010;-70
2024/03/22 09:23:20;;;;;;;7.85;6.40;;;;;;;20.70;79.41;101587.94;143722;567;47004;-70
2024/03/22 09:25:50;;;;;;;10.52;6.68;;;;;;;20.76;78.31;101597.88;143721;643;47008;-70
2024/03/22 09:28:16;;;;;;;8.20;5.20;;;;;;;20.96;78.50;101593.84;143719;610;47006;-71
2024/03/22 09:30:46;;;;;;;10.25;5.37;;;;;;;20.79;79.61;101594.66;143720;566;47010;-72
2024/03/22 09:33:12;;;;;;;12.05;5.10;;;;;;;20.17;82.82;101592.66;143716;594;47006;-71
2024/03/22 09:35:39;;;;;;;10.90;6.03;;;;;;;19.71;83.80;101601.47;143724;609;46008;-72
2024/03/22 09:38:05;;;;;;;11.90;6.12;;;;;;;19.49;83.52;101598.53;143717;598;47004;-71
2024/03/22 09:40:31;;;;;;;8.38;4.87;;;;;;;19.44;83.31;101596.50;143722;567;47006;-70
2024/03/22 09:43:03;;;;;;;8.60;4.85;;;;;;;19.35;82.12;101606.09;143722;579;47006;-70
2024/03/22 09:45:31;;;;;;;6.07;4.10;;;;;;;19.48;82.62;101605.88;143722;673;47008;-69
2024/03/22 09:47:58;;;;;;;7.72;4.62;;;;;;;20.06;81.34;101599.78;143725;644;47006;-71
2024/03/22 09:50:26;;;;;;;6.20;4.30;;;;;;;20.06;80.06;101600.63;143721;573;47012;-70
2024/03/22 09:52:53;;;;;;;8.20;4.75;;;;;;;20.05;78.54;101596.25;143719;608;47006;-71
2024/03/22 09:55:30;;;;;;;9.10;4.30;;;;;;;19.91;78.92;101601.12;143721;575;47009;-71
2024/03/22 09:57:57;;;;;;;7.28;4.60;;;;;;;19.98;78.00;101596.37;143720;788;47004;-71
2024/03/22 10:00:26;;;;;;;6.75;4.18;;;;;;;20.32;77.81;101595.69;143721;601;47010;-70
2024/03/22 10:02:56;;;;;;;8.05;4.50;;;;;;;20.49;76.75;101593.00;143718;593;47006;-69
2024/03/22 10:05:22;;;;;;;6.85;3.80;;;;;;;20.63;75.90;101598.16;143721;566;46008;-71
2024/03/22 10:07:50;;;;;;;7.95;4.00;;;;;;;20.46;74.50;101601.69;143720;932;47006;-72
2024/03/22 10:10:16;;;;;;;9.60;3.95;;;;;;;19.96;73.85;101597.66;143721;583;46013;-70
2024/03/22 10:12:42;;;;;;;10.63;3.87;;;;;;;20.40;73.01;101610.81;143722;568;46010;-70
2024/03/22 10:15:09;;;;;;;7.70;4.12;;;;;;;20.54;73.82;101592.28;143718;980;46020;-72
2024/03/22 10:17:36;;;;;;;5.37;3.40;;;;;;;20.36;72.35;101609.69;143720;590;47004;-72
2024/03/22 10:20:03;;;;;;;6.72;3.78;;;;;;;20.44;72.31;101593.75;143716;586;47012;-72
2024/03/22 10:22:29;;;;;;;5.62;4.20;;;;;;;20.42;73.09;101604.06;143719;601;47006;-72
2024/03/22 10:25:00;;;;;;;6.47;3.53;;;;;;;20.50;72.64;101607.47;143722;592;47002;-73
2024/03/22 10:27:29;;;;;;;3.90;3.50;;;;;;;20.47;71.89;101597.06;143722;570;47004;-71
2024/03/22 10:29:56;;;;;;;6.68;4.50;;;;;;;20.47;72.14;101589.69;143723;870;46012;-71
2024/03/22 10:32:23;;;;;;;4.05;3.30;;;;;;;20.34;71.65;101584.53;143723;600;47006;-73
2024/03/22 10:34:50;;;;;;;5.87;3.10;;;;;;;20.58;70.91;101590.72;143717;565;47008;-71
2024/03/22 10:37:17;;;;;;;6.60;3.78;;;;;;;20.58;71.24;101580.62;143722;601;47004;-71
2024/03/22 10:39:46;;;;;;;6.50;3.55;;;;;;;20.81;71.64;101588.97;143722;685;47006;-73
2024/03/22 10:42:12;;;;;;;5.85;3.72;;;;;;;20.51;71.36;101590.03;143721;584;47006;-71
2024/03/22 10:44:39;;;;;;;6.45;3.15;;;;;;;20.40;71.91;101580.81;143717;849;47008;-70
2024/03/22 10:47:09;;;;;;;7.07;3.70;;;;;;;20.27;72.16;101598.31;143722;642;47004;-72
2024/03/22 10:49:38;;;;;;;9.25;3.67;;;;;;;20.23;72.44;101594.41;143723;651;46026;-71
2024/03/22 10:52:07;;;;;;;6.85;3.60;;;;;;;20.90;71.71;101580.13;143720;666;47006;-69
2024/03/22 10:54:38;;;;;;;5.07;2.92;;;;;;;21.23;71.30;101585.03;143719;588;48002;-72
2024/03/22 10:57:08;;;;;;;7.32;2.97;;;;;;;21.11;69.80;101585.91;143722;708;47006;-71
2024/03/22 10:59:35;;;;;;;5.47;3.20;;;;;;;21.53;69.95;101581.09;143720;596;46925;-70
2024/03/22 11:02:06;;;;;;;6.05;3.17;;;;;;;21.77;69.15;101581.72;143720;978;47007;-70
2024/03/22 11:04:34;;;;;;;4.28;3.15;;;;;;;21.86;68.39;101574.75;143722;921;46008;-69
2024/03/22 11:07:00;;;;;;;4.15;2.80;;;;;;;21.58;68.04;101568.31;143721;973;47004;-70
2024/03/22 11:09:27;;;;;;;6.10;3.17;;;;;;;21.58;67.96;101571.03;143717;572;46012;-71
2024/03/22 11:11:56;;;;;;;6.65;3.30;;;;;;;21.70;68.75;101570.97;143721;574;47006;-70
2024/03/22 11:14:25;;;;;;;6.28;3.28;;;;;;;21.84;67.76;101571.44;143722;945;46008;-70
2024/03/22 11:16:52;;;;;;;8.52;3.30;;;;;;;21.91;66.78;101563.84;143722;604;47006;-72
2024/03/22 11:19:19;;;;;;;7.50;2.92;;;;;;;21.49;67.91;101573.38;143721;576;47010;-71
2024/03/22 11:21:45;;;;;;;4.12;2.70;;;;;;;21.53;68.57;101560.06;143720;960;47006;-69
2024/03/22 11:24:11;;;;;;;4.65;3.05;;;;;;;21.72;67.23;101568.81;143723;984;46008;-71
2024/03/22 11:26:38;;;;;;;5.85;3.35;;;;;;;21.45;67.54;101565.94;143720;710;47004;-71
2024/03/22 11:29:04;;;;;;;5.35;2.92;;;;;;;21.23;67.06;101557.69;143720;965;47010;-70
2024/03/22 11:31:32;;;;;;;5.18;3.20;;;;;;;21.18;67.39;101559.28;143721;973;47006;-70
2024/03/22 11:34:00;;;;;;;6.65;3.10;;;;;;;21.52;66.77;101558.41;143717;568;46008;-70
2024/03/22 11:36:26;;;;;;;4.62;2.62;;;;;;;21.65;65.74;101559.94;143723;563;47008;-70
2024/03/22 11:38:53;;;;;;;4.57;3.17;;;;;;;21.68;65.46;101566.84;143720;579;47012;-70
2024/03/22 11:41:30;;;;;;;4.75;3.03;;;;;;;22.04;66.12;101561.81;143719;876;47006;-70
2024/03/22 11:43:57;;;;;;;5.32;3.20;;;;;;;21.90;65.06;101564.94;143721;960;47008;-70
2024/03/22 11:46:24;;;;;;;8.95;3.53;;;;;;;22.09;64.22;101556.41;143720;981;47004;-70
2024/03/22 11:48:54;;;;;;;5.65;3.35;;;;;;;22.04;64.32;101565.37;143719;665;47012;-71
2024/03/22 11:51:22;;;;;;;8.15;3.00;;;;;;;22.05;64.83;101558.81;143720;936;47006;-70
2024/03/22 11:53:53;;;;;;;5.80;3.50;;;;;;;21.96;64.32;101563.09;143722;762;47008;-71
2024/03/22 11:56:20;;;;;;;8.05;3.22;;;;;;;21.98;64.69;101573.78;143721;584;47006;-73
2024/03/22 11:58:59;;;;;;;7.47;3.50;;;;;;;21.47;64.52;101577.44;143716;833;47012;-72
2024/03/22 12:01:25;;;;;;;3.65;2.78;;;;;;;21.56;65.36;101570.47;143722;573;47004;-72
2024/03/22 12:03:52;;;;;;;5.20;2.92;;;;;;;20.97;65.87;101562.75;143722;595;46008;-72
2024/03/22 12:06:18;;;;;;;5.10;2.50;;;;;;;20.75;65.28;101568.91;143719;582;47004;-71
2024/03/22 12:08:44;;;;;;;4.78;2.70;;;;;;;20.79;65.96;101570.09;143720;585;47011;-72
2024/03/22 12:11:11;;;;;;;8.07;2.80;;;;;;;21.41;65.72;101562.91;143722;584;47004;-71
2024/03/22 12:13:38;;;;;;;7.78;2.87;;;;;;;21.26;64.81;101559.94;143720;576;46008;-71
2024/03/22 12:16:05;;;;;;;4.32;3.12;;;;;;;21.12;65.37;101562.16;143722;595;47006;-72
2024/03/22 12:18:31;;;;;;;4.07;2.58;;;;;;;21.20;64.36;101557.12;143719;593;47010;-70
2024/03/22 12:20:58;;;;;;;5.18;3.10;;;;;;;21.27;65.13;101561.59;143721;978;47006;-72
2024/03/22 12:23:24;;;;;;;5.18;3.17;;;;;;;21.15;64.53;101564.41;143718;599;46009;-70
2024/03/22 12:25:51;;;;;;;5.60;2.78;;;;;;;20.94;66.24;101558.63;143723;716;47008;-70
2024/03/22 12:28:23;;;;;;;6.37;3.22;;;;;;;20.79;66.61;101553.72;143722;973;46027;-69
2024/03/22 12:30:53;;;;;;;6.10;2.78;;;;;;;20.68;66.97;101551.87;143721;745;47006;-69
2024/03/22 12:33:19;;;;;;;5.40;3.03;;;;;;;20.90;67.62;101549.25;143719;576;48002;-71
2024/03/22 12:35:46;;;;;;;5.45;2.67;;;;;;;21.01;66.04;101552.97;143723;572;47002;-70
2024/03/22 12:38:13;;;;;;;7.03;2.92;;;;;;;20.98;65.46;101548.84;143719;843;47011;-69
2024/03/22 12:40:40;;;;;;;3.37;2.87;;;;;;;20.74;65.28;101546.25;143718;569;47006;-69
2024/03/22 12:43:09;;;;;;;5.75;3.03;;;;;;;20.63;65.91;101557.22;143718;666;47008;-70
2024/03/22 12:45:35;;;;;;;5.07;3.08;;;;;;;20.40;66.22;101548.06;143720;973;47005;-71
2024/03/22 12:48:02;;;;;;;6.75;2.72;;;;;;;20.41;65.91;101536.09;143716;575;46925;-69
2024/03/22 12:50:28;;;;;;;4.82;3.00;;;;;;;20.72;66.52;101528.47;143722;582;47006;-69
2024/03/22 12:52:54;;;;;;;5.95;3.30;;;;;;;20.93;65.84;101531.53;143722;984;47005;-71
2024/03/22 12:55:21;;;;;;;7.25;3.62;;;;;;;21.10;66.36;101534.28;143723;590;47006;-71
2024/03/22 12:57:47;;;;;;;5.05;3.53;;;;;;;20.51;65.90;101541.75;143721;637;47010;-73
2024/03/22 13:00:18;;;;;;;3.75;2.70;;;;;;;20.25;66.53;101540.44;143722;858;47006;-72
2024/03/22 13:02:47;;;;;;;5.70;3.60;;;;;;;20.07;67.83;101533.25;143721;586;46021;-70
2024/03/22 13:05:15;;;;;;;6.78;3.55;;;;;;;20.38;67.81;101533.88;143722;973;47004;-72
2024/03/22 13:07:42;;;;;;;6.22;3.37;;;;;;;20.47;67.14;101539.75;143718;871;47012;-71
2024/03/22 13:10:09;;;;;;;6.87;3.33;;;;;;;20.29;67.24;101533.44;143719;575;47006;-73
2024/03/22 13:12:35;;;;;;;6.07;3.20;;;;;;;20.04;68.34;101533.75;143717;577;46008;-70
2024/03/22 13:15:03;;;;;;;8.23;3.12;;;;;;;19.76;69.96;101535.34;143719;569;47004;-70
2024/03/22 13:17:29;;;;;;;11.75;3.85;;;;;;;19.84;69.03;101533.06;143720;842;47010;-72